createdAt,value
2022-09-15T00:00:01.956Z,98897.63
2022-09-15T00:02:29.605Z,98897.84
2022-09-15T00:04:57.335Z,98898.16
2022-09-15T00:07:24.888Z,98905.06
2022-09-15T00:09:52.732Z,98904.41
2022-09-15T00:12:20.312Z,98898.56
2022-09-15T00:14:47.852Z,98901.56
2022-09-15T00:17:15.400Z,98896.56
2022-09-15T00:19:42.960Z,98897.91
2022-09-15T00:22:10.883Z,98901.28
2022-09-15T00:24:38.562Z,98902.63
2022-09-15T00:27:06.125Z,98895.25
2022-09-15T00:29:33.649Z,98889.59
2022-09-15T00:32:01.144Z,98891.78
2022-09-15T00:34:29.102Z,98890.63
2022-09-15T00:36:57.071Z,98890.09
2022-09-15T00:39:24.580Z,98894.09
2022-09-15T00:41:52.151Z,98896.28
2022-09-15T00:44:19.687Z,98895.94
2022-09-15T00:47:03.946Z,98897.31
2022-09-15T00:49:35.393Z,98895.97
2022-09-15T00:52:03.090Z,98899.84
2022-09-15T00:54:30.582Z,98894.97
2022-09-15T00:57:02.596Z,98899.81
2022-09-15T00:59:30.153Z,98893.97
2022-09-15T01:01:57.779Z,98898.66
2022-09-15T01:04:25.377Z,98898.16
2022-09-15T01:06:52.888Z,98896.63
2022-09-15T01:09:20.722Z,98889.97
2022-09-15T01:11:48.272Z,98901.84
2022-09-15T01:14:15.761Z,98897.66
2022-09-15T01:16:43.354Z,98895.97
2022-09-15T01:19:11.405Z,98897.13
2022-09-15T01:21:39.783Z,98902.84
2022-09-15T01:24:07.283Z,98900.47
2022-09-15T01:26:34.891Z,98900.66
2022-09-15T01:29:02.401Z,98899.31
2022-09-15T01:31:29.988Z,98897.97
2022-09-15T01:33:56.842Z,98901.16
2022-09-15T01:36:24.340Z,98898.97
2022-09-15T01:38:52.007Z,98895.78
2022-09-15T01:41:19.676Z,98890.91
2022-09-15T01:43:47.233Z,98885.91
2022-09-15T01:46:15.225Z,98884.59
2022-09-15T01:48:43.084Z,98882.22
2022-09-15T01:51:10.628Z,98883.22
2022-09-15T01:53:38.142Z,98885.91
2022-09-15T01:56:06.161Z,98884.06
2022-09-15T01:58:34.050Z,98891.91
2022-09-15T02:01:03.632Z,98886.56
2022-09-15T02:03:32.259Z,98884.88
2022-09-15T02:06:02.905Z,98879.53
2022-09-15T02:08:30.410Z,98888.56
2022-09-15T02:10:58.364Z,98892.25
2022-09-15T02:13:26.023Z,98895.94
2022-09-15T02:15:53.517Z,98892.25
2022-09-15T02:18:21.063Z,98882.72
2022-09-15T02:20:49.428Z,98891.59
2022-09-15T02:23:17.774Z,98886.25
2022-09-15T02:25:51.754Z,98883.56
2022-09-15T02:28:19.280Z,98888.06
2022-09-15T02:30:46.811Z,98893.25
2022-09-15T02:33:14.563Z,98889.41
2022-09-15T02:35:42.462Z,98897.25
2022-09-15T02:38:10.533Z,98899.63
2022-09-15T02:40:38.106Z,98894.28
2022-09-15T02:43:06.474Z,98894.94
2022-09-15T02:45:34.320Z,98898.63
2022-09-15T02:48:02.257Z,98894.09
2022-09-15T02:50:31.052Z,98902.94
2022-09-15T02:52:58.597Z,98893.78
2022-09-15T02:55:27.375Z,98896.25
2022-09-15T02:57:54.906Z,98901.59
2022-09-15T03:00:22.869Z,98892.63
2022-09-15T03:02:51.755Z,98902.47
2022-09-15T03:05:19.285Z,98892.78
2022-09-15T03:07:47.355Z,98897.25
2022-09-15T03:10:14.919Z,98903.63
2022-09-15T03:12:42.438Z,98903.63
2022-09-15T03:15:10.133Z,98903.63
2022-09-15T03:17:37.698Z,98899.13
2022-09-15T03:20:05.482Z,98907.28
2022-09-15T03:22:33.020Z,98903.78
2022-09-15T03:25:01.480Z,98907.28
2022-09-15T03:27:29.212Z,98910.63
2022-09-15T03:29:57.168Z,98905.97
2022-09-15T03:32:24.885Z,98911.00
2022-09-15T03:34:57.682Z,98909.84
2022-09-15T03:37:26.310Z,98913.31
2022-09-15T03:39:54.075Z,98915.03
2022-09-15T03:42:21.635Z,98914.03
2022-09-15T03:44:49.217Z,98915.34
2022-09-15T03:47:16.738Z,98907.81
2022-09-15T03:49:44.663Z,98910.66
2022-09-15T03:52:13.944Z,98910.00
2022-09-15T03:54:42.015Z,98907.69
2022-09-15T03:57:09.532Z,98910.72
2022-09-15T03:59:37.102Z,98902.84
2022-09-15T04:02:05.122Z,98901.31
2022-09-15T04:04:32.879Z,98908.34
2022-09-15T04:07:00.512Z,98905.19
2022-09-15T04:09:28.209Z,98910.84
2022-09-15T04:11:55.749Z,98907.66
2022-09-15T04:14:23.666Z,98899.13
2022-09-15T04:16:51.201Z,98907.84
2022-09-15T04:19:18.719Z,98899.63
2022-09-15T04:21:47.549Z,98903.00
2022-09-15T04:24:15.082Z,98899.31
2022-09-15T04:26:42.970Z,98894.78
2022-09-15T04:29:10.699Z,98908.34
2022-09-15T04:31:38.294Z,98910.34
2022-09-15T04:34:05.849Z,98905.16
2022-09-15T04:36:33.835Z,98907.84
2022-09-15T04:39:01.750Z,98908.84
2022-09-15T04:41:29.308Z,98906.19
2022-09-15T04:43:56.881Z,98910.53
2022-09-15T04:46:24.527Z,98917.53
2022-09-15T04:48:52.074Z,98916.69
2022-09-15T04:51:20.126Z,98910.34
2022-09-15T04:53:47.689Z,98912.84
2022-09-15T04:56:15.209Z,98907.50
2022-09-15T04:58:43.219Z,98916.19
2022-09-15T05:01:10.819Z,98907.16
2022-09-15T05:03:38.814Z,98912.34
2022-09-15T05:06:06.473Z,98913.84
2022-09-15T05:08:34.063Z,98911.03
2022-09-15T05:11:01.713Z,98918.06
2022-09-15T05:13:29.335Z,98909.03
2022-09-15T05:15:57.312Z,98912.50
2022-09-15T05:18:25.330Z,98913.38
2022-09-15T05:20:53.216Z,98911.53
2022-09-15T05:23:20.762Z,98915.88
2022-09-15T05:25:48.331Z,98920.06
2022-09-15T05:28:16.305Z,98920.06
2022-09-15T05:30:44.677Z,98913.69
2022-09-15T05:33:12.332Z,98917.41
2022-09-15T05:35:40.097Z,98915.38
2022-09-15T05:38:07.659Z,98924.22
2022-09-15T05:40:35.616Z,98917.88
2022-09-15T05:43:03.413Z,98925.72
2022-09-15T05:45:31.052Z,98928.09
2022-09-15T05:47:58.587Z,98927.06
2022-09-15T05:50:26.145Z,98935.78
2022-09-15T05:52:54.591Z,98940.44
2022-09-15T05:55:22.531Z,98929.56
2022-09-15T05:57:50.094Z,98930.06
2022-09-15T06:00:19.066Z,98935.88
2022-09-15T06:02:46.634Z,98937.41
2022-09-15T06:05:14.957Z,98940.56
2022-09-15T06:07:42.741Z,98940.06
2022-09-15T06:10:10.453Z,98932.69
2022-09-15T06:12:38.068Z,98934.38
2022-09-15T06:15:05.624Z,98939.03
2022-09-15T06:17:33.566Z,98945.72
2022-09-15T06:20:01.691Z,98941.69
2022-09-15T06:22:29.236Z,98940.31
2022-09-15T06:24:56.821Z,98942.69
2022-09-15T06:27:24.774Z,98943.97
2022-09-15T06:29:52.551Z,98955.19
2022-09-15T06:32:20.249Z,98949.47
2022-09-15T06:34:47.840Z,98966.06
2022-09-15T06:37:15.692Z,98968.03
2022-09-15T06:39:43.400Z,98966.69
2022-09-15T06:42:13.777Z,98973.56
2022-09-15T06:44:41.613Z,98968.84
2022-09-15T06:47:09.149Z,98969.50
2022-09-15T06:49:37.057Z,98974.72
2022-09-15T06:52:05.236Z,98980.91
2022-09-15T06:54:33.163Z,98985.09
2022-09-15T06:57:00.958Z,98982.06
2022-09-15T06:59:28.522Z,98979.66
2022-09-15T07:01:56.126Z,98980.88
2022-09-15T07:04:23.764Z,98982.19
2022-09-15T07:06:52.115Z,98989.69
2022-09-15T07:09:19.722Z,98993.88
2022-09-15T07:11:47.381Z,98994.72
2022-09-15T07:14:14.960Z,98995.56
2022-09-15T07:16:42.606Z,99004.44
2022-09-15T07:19:10.679Z,99005.47
2022-09-15T07:21:38.241Z,99001.75
2022-09-15T07:24:07.519Z,99005.91
2022-09-15T07:26:35.294Z,99015.31
2022-09-15T07:29:02.861Z,99011.06
2022-09-15T07:31:31.212Z,99015.75
2022-09-15T07:33:59.268Z,99013.00
2022-09-15T07:36:26.864Z,99008.59
2022-09-15T07:38:54.425Z,99014.94
2022-09-15T07:41:22.011Z,99014.22
2022-09-15T07:43:49.586Z,99011.81
2022-09-15T07:46:17.429Z,99016.00
2022-09-15T07:48:45.087Z,99017.69
2022-09-15T07:51:12.713Z,99023.25
2022-09-15T07:53:40.564Z,99029.44
2022-09-15T07:56:08.382Z,99030.94
2022-09-15T07:58:35.962Z,99032.25
2022-09-15T08:01:04.152Z,99038.94
2022-09-15T08:03:31.818Z,99038.41
2022-09-15T08:05:59.398Z,99030.81
2022-09-15T08:08:27.368Z,99025.91
2022-09-15T08:10:55.357Z,99038.63
2022-09-15T08:13:23.252Z,99039.41
2022-09-15T08:15:51.189Z,99033.00
2022-09-15T08:18:18.863Z,99036.53
2022-09-15T08:20:46.803Z,99036.38
2022-09-15T08:23:14.544Z,99033.16
2022-09-15T08:25:42.774Z,99036.31
2022-09-15T08:28:10.429Z,99031.13
2022-09-15T08:30:38.976Z,99041.81
2022-09-15T08:33:06.904Z,99054.72
2022-09-15T08:35:36.942Z,99042.75
2022-09-15T08:38:04.784Z,99043.00
2022-09-15T08:40:32.431Z,99047.38
2022-09-15T08:43:00.092Z,99055.66
2022-09-15T08:45:28.026Z,99053.53
2022-09-15T08:47:58.698Z,99055.56
2022-09-15T08:50:27.454Z,99051.00
2022-09-15T08:52:55.718Z,99063.06
2022-09-15T08:55:24.032Z,99061.88
2022-09-15T08:57:51.943Z,99069.28
2022-09-15T09:00:20.417Z,99069.00
2022-09-15T09:02:48.202Z,99065.69
2022-09-15T09:05:15.821Z,99064.47
2022-09-15T09:07:43.436Z,99065.28
2022-09-15T09:10:11.386Z,99065.28
2022-09-15T09:12:39.152Z,99071.59
2022-09-15T09:15:06.778Z,99079.75
2022-09-15T09:17:34.405Z,99068.97
2022-09-15T09:20:01.997Z,99072.00
2022-09-15T09:22:30.838Z,99069.84
2022-09-15T09:24:58.822Z,99066.91
2022-09-15T09:27:26.404Z,99071.25
2022-09-15T09:29:53.982Z,99067.41
2022-09-15T09:32:21.927Z,99074.31
2022-09-15T09:34:50.913Z,99079.31
2022-09-15T09:37:18.674Z,99075.22
2022-09-15T09:39:47.254Z,99084.78
2022-09-15T09:42:14.872Z,99078.19
2022-09-15T09:44:42.455Z,99078.53
2022-09-15T09:47:10.105Z,99080.78
2022-09-15T09:49:37.721Z,99084.72
2022-09-15T09:52:05.560Z,99090.94
2022-09-15T09:54:33.255Z,99090.81
2022-09-15T09:57:00.932Z,99090.69
2022-09-15T09:59:28.523Z,99091.91
2022-09-15T10:01:56.560Z,99086.91
2022-09-15T10:04:24.272Z,99082.78
2022-09-15T10:06:52.152Z,99080.44
2022-09-15T10:09:19.857Z,99075.63
2022-09-15T10:11:47.557Z,99075.28
2022-09-15T10:14:15.327Z,99079.03
2022-09-15T10:16:43.014Z,99073.31
2022-09-15T10:19:10.637Z,99079.78
2022-09-15T10:21:38.187Z,99073.31
2022-09-15T10:24:06.182Z,99072.09
2022-09-15T10:26:33.938Z,99062.69
2022-09-15T10:29:01.796Z,99068.28
2022-09-15T10:31:29.713Z,99061.16
2022-09-15T10:33:57.429Z,99064.28
2022-09-15T10:36:25.398Z,99073.56
2022-09-15T10:38:53.129Z,99069.84
2022-09-15T10:41:20.755Z,99068.63
2022-09-15T10:43:48.374Z,99071.19
2022-09-15T10:46:16.074Z,99068.22
2022-09-15T10:48:44.048Z,99073.19
2022-09-15T10:51:12.386Z,99073.00
2022-09-15T10:53:40.033Z,99074.16
2022-09-15T10:56:07.613Z,99079.28
2022-09-15T10:58:35.234Z,99080.00
2022-09-15T11:01:03.299Z,99078.03
2022-09-15T11:03:31.336Z,99077.63
2022-09-15T11:05:58.959Z,99089.13
2022-09-15T11:08:26.628Z,99091.44
2022-09-15T11:10:54.262Z,99088.78
2022-09-15T11:13:22.284Z,99088.34
2022-09-15T11:15:50.612Z,99102.06
2022-09-15T11:18:18.229Z,99096.91
2022-09-15T11:20:45.852Z,99102.50
2022-09-15T11:23:13.479Z,99108.91
2022-09-15T11:25:41.242Z,99123.31
2022-09-15T11:28:08.998Z,99146.81
2022-09-15T11:30:36.716Z,99148.25
2022-09-15T11:33:04.284Z,99130.75
2022-09-15T11:35:31.898Z,99135.88
2022-09-15T11:37:59.918Z,99138.81
2022-09-15T11:40:28.647Z,99135.47
2022-09-15T11:42:56.319Z,99135.13
2022-09-15T11:45:23.963Z,99128.00
2022-09-15T11:47:51.612Z,99135.47
2022-09-15T11:50:19.609Z,99128.19
2022-09-15T11:52:47.432Z,99137.84
2022-09-15T11:55:15.814Z,99135.38
2022-09-15T11:57:43.512Z,99136.22
2022-09-15T12:00:11.238Z,99129.69
2022-09-15T12:02:39.106Z,99132.59
2022-09-15T12:05:06.905Z,99127.78
2022-09-15T12:07:34.595Z,99133.44
2022-09-15T12:10:02.176Z,99121.81
2022-09-15T12:12:30.866Z,99109.53
2022-09-15T12:14:59.585Z,99114.81
2022-09-15T12:17:28.047Z,99111.94
2022-09-15T12:19:55.626Z,99111.25
2022-09-15T12:22:23.777Z,99111.31
2022-09-15T12:24:51.401Z,99108.41
2022-09-15T12:27:19.352Z,99107.88
2022-09-15T12:29:47.246Z,99103.09
2022-09-15T12:32:14.821Z,99106.22
2022-09-15T12:34:42.430Z,99102.66
2022-09-15T12:37:10.158Z,99095.56
2022-09-15T12:39:38.397Z,99105.44
2022-09-15T12:42:06.270Z,99097.34
2022-09-15T12:44:34.022Z,99098.75
2022-09-15T12:47:01.628Z,99102.06
2022-09-15T12:49:29.193Z,99107.28
2022-09-15T12:51:56.872Z,99112.47
2022-09-15T12:54:24.872Z,99108.72
2022-09-15T12:56:52.493Z,99105.41
2022-09-15T12:59:20.348Z,99110.19
2022-09-15T13:01:49.169Z,99105.78
2022-09-15T13:04:17.287Z,99105.09
2022-09-15T13:06:44.958Z,99105.63
2022-09-15T13:09:13.190Z,99099.28
2022-09-15T13:11:40.854Z,99103.75
2022-09-15T13:14:08.540Z,99110.75
2022-09-15T13:16:37.518Z,99102.34
2022-09-15T13:19:05.482Z,99108.94
2022-09-15T13:21:33.135Z,99098.06
2022-09-15T13:24:01.024Z,99099.75
2022-09-15T13:26:28.611Z,99103.84
2022-09-15T13:28:56.857Z,99105.22
2022-09-15T13:31:24.841Z,99107.00
2022-09-15T13:39:28.403Z,99095.19
2022-09-15T13:41:56.204Z,99100.66
2022-09-15T13:44:23.902Z,99091.94
2022-09-15T13:46:51.540Z,99101.06
2022-09-15T13:49:19.118Z,99098.31
2022-09-15T13:51:51.442Z,99092.28
2022-09-15T13:54:21.115Z,99084.78
2022-09-15T13:56:49.244Z,99075.81
2022-09-15T13:59:17.142Z,99075.88
2022-09-15T14:01:45.537Z,99077.31
2022-09-15T14:04:13.545Z,99067.09
2022-09-15T14:06:42.960Z,99072.91
2022-09-15T14:09:10.655Z,99078.88
2022-09-15T14:11:38.388Z,99073.63
2022-09-15T14:14:05.954Z,99066.06
2022-09-15T14:16:35.516Z,99066.81
2022-09-15T14:19:04.070Z,99065.66
2022-09-15T14:21:32.107Z,99065.19
2022-09-15T14:23:59.822Z,99063.91
2022-09-15T14:26:28.928Z,99056.81
2022-09-15T14:28:57.179Z,99057.69
2022-09-15T14:31:24.928Z,99066.38
2022-09-15T14:33:52.730Z,99063.63
2022-09-15T14:36:20.441Z,99072.69
2022-09-15T14:38:48.308Z,99068.28
2022-09-15T14:41:18.054Z,99073.22
2022-09-15T14:43:45.947Z,99069.63
2022-09-15T14:46:13.794Z,99063.09
2022-09-15T14:48:41.590Z,99071.69
2022-09-15T14:51:09.449Z,99072.84
2022-09-15T14:53:38.338Z,99074.22
2022-09-15T14:56:08.339Z,99072.75
2022-09-15T14:58:36.198Z,99074.22
2022-09-15T15:01:04.005Z,99076.47
2022-09-15T15:03:31.698Z,99072.56
2022-09-15T15:06:02.842Z,99075.03
2022-09-15T15:08:47.746Z,99076.06
2022-09-15T15:11:15.320Z,99066.13
2022-09-15T15:13:43.562Z,99081.28
2022-09-15T15:16:11.691Z,99072.34
2022-09-15T15:18:39.685Z,99081.47
2022-09-15T15:21:07.415Z,99074.97
2022-09-15T15:23:35.150Z,99076.19
2022-09-15T15:26:02.825Z,99079.47
2022-09-15T15:28:30.875Z,99085.25
2022-09-15T15:30:58.635Z,99083.94
2022-09-15T15:33:27.649Z,99079.59
2022-09-15T15:35:55.309Z,99080.22
2022-09-15T15:38:25.553Z,99082.91
2022-09-15T15:40:53.602Z,99088.53
2022-09-15T15:43:21.190Z,99086.00
2022-09-15T15:45:49.439Z,99073.81
2022-09-15T15:48:17.167Z,99079.09
2022-09-15T15:50:44.869Z,99084.38
2022-09-15T15:53:12.864Z,99084.38
2022-09-15T15:55:40.782Z,99077.66
2022-09-15T15:58:08.541Z,99080.44
2022-09-15T16:00:36.783Z,99082.63
2022-09-15T16:03:05.202Z,99091.16
2022-09-15T16:05:33.222Z,99087.28
2022-09-15T16:08:00.853Z,99084.06
2022-09-15T16:10:28.523Z,99091.63
2022-09-15T16:12:56.231Z,99086.69
2022-09-15T16:15:23.895Z,99087.84
2022-09-15T16:17:52.143Z,99090.63
2022-09-15T16:20:20.839Z,99084.72
2022-09-15T16:22:48.497Z,99091.41
2022-09-15T16:25:16.092Z,99097.09
2022-09-15T16:27:43.765Z,99098.47
2022-09-15T16:30:12.955Z,99096.88
2022-09-15T16:32:40.853Z,99103.16
2022-09-15T16:35:08.624Z,99100.56
2022-09-15T16:37:36.274Z,99101.47
2022-09-15T16:40:03.987Z,99099.88
2022-09-15T16:42:31.832Z,99108.81
2022-09-15T16:44:59.661Z,99101.69
2022-09-15T16:47:27.377Z,99112.28
2022-09-15T16:49:55.061Z,99113.81
2022-09-15T16:52:22.752Z,99125.09
2022-09-15T16:54:50.896Z,99127.69
2022-09-15T16:57:19.650Z,99120.97
2022-09-15T16:59:47.555Z,99116.31
2022-09-15T17:02:15.217Z,99112.66
2022-09-15T17:04:42.864Z,99113.19
2022-09-15T17:07:10.832Z,99114.56
2022-09-15T17:09:38.611Z,99111.41
2022-09-15T17:12:06.447Z,99121.00
2022-09-15T17:14:34.235Z,99123.19
2022-09-15T17:17:01.958Z,99121.00
2022-09-15T17:19:29.906Z,99125.22
2022-09-15T17:21:57.891Z,99119.56
2022-09-15T17:24:25.921Z,99126.44
2022-09-15T17:26:53.597Z,99124.28
2022-09-15T17:29:21.191Z,99126.00
2022-09-15T17:31:49.037Z,99127.53
2022-09-15T17:34:16.735Z,99127.56
2022-09-15T17:36:45.676Z,99124.91
2022-09-15T17:39:13.393Z,99122.22
2022-09-15T17:41:41.071Z,99124.56
2022-09-15T17:44:08.774Z,99128.41
2022-09-15T17:46:36.561Z,99127.75
2022-09-15T17:49:04.500Z,99127.75
2022-09-15T17:51:32.258Z,99134.97
2022-09-15T17:54:00.126Z,99128.94
2022-09-15T17:56:28.212Z,99135.66
2022-09-15T17:58:55.966Z,99129.78
2022-09-15T18:01:23.897Z,99137.66
2022-09-15T18:03:51.777Z,99135.50
2022-09-15T18:06:19.874Z,99127.97
2022-09-15T18:08:48.031Z,99133.66
2022-09-15T18:11:15.720Z,99137.53
2022-09-15T18:13:43.679Z,99135.19
2022-09-15T18:16:11.417Z,99138.19
2022-09-15T18:18:40.608Z,99145.72
2022-09-15T18:21:08.660Z,99139.69
2022-09-15T18:23:37.635Z,99152.09
2022-09-15T18:26:05.357Z,99154.78
2022-09-15T18:28:33.266Z,99142.22
2022-09-15T18:31:00.895Z,99148.41
2022-09-15T18:33:28.925Z,99153.75
2022-09-15T18:35:56.705Z,99156.28
2022-09-15T18:38:24.471Z,99163.31
2022-09-15T18:40:53.525Z,99158.97
2022-09-15T18:43:21.251Z,99168.53
2022-09-15T18:45:49.353Z,99161.50
2022-09-15T18:48:16.963Z,99171.00
2022-09-15T18:50:45.494Z,99163.66
2022-09-15T18:53:13.104Z,99167.16
2022-09-15T18:55:40.713Z,99171.50
2022-09-15T18:58:08.730Z,99166.16
2022-09-15T19:00:36.344Z,99173.22
2022-09-15T19:03:04.172Z,99175.72
2022-09-15T19:05:31.814Z,99180.25
2022-09-15T19:07:59.478Z,99175.72
2022-09-15T19:10:27.894Z,99174.88
2022-09-15T19:12:55.465Z,99177.56
2022-09-15T19:15:24.342Z,99174.88
2022-09-15T19:17:51.996Z,99178.22
2022-09-15T19:20:19.653Z,99189.63
2022-09-15T19:22:47.977Z,99196.66
2022-09-15T19:25:15.570Z,99191.97
2022-09-15T19:27:43.465Z,99191.28
2022-09-15T19:30:11.263Z,99183.94
2022-09-15T19:32:38.843Z,99183.59
2022-09-15T19:35:06.851Z,99190.28
2022-09-15T19:37:34.505Z,99193.66
2022-09-15T19:40:03.380Z,99193.31
2022-09-15T19:42:31.331Z,99194.81
2022-09-15T19:44:58.926Z,99198.00
2022-09-15T19:47:26.980Z,99196.63
2022-09-15T19:49:55.300Z,99195.44
2022-09-15T19:52:22.883Z,99196.97
2022-09-15T19:54:50.844Z,99197.25
2022-09-15T19:57:18.500Z,99195.75
2022-09-15T19:59:46.464Z,99200.44
2022-09-15T20:02:14.096Z,99198.75
2022-09-15T20:04:42.093Z,99195.25
2022-09-15T20:07:09.657Z,99195.25
2022-09-15T20:09:37.225Z,99202.13
2022-09-15T20:12:05.254Z,99203.97
2022-09-15T20:14:32.822Z,99201.28
2022-09-15T20:17:01.900Z,99200.28
2022-09-15T20:19:29.666Z,99202.78
2022-09-15T20:21:57.259Z,99207.16
2022-09-15T20:24:24.913Z,99208.97
2022-09-15T20:26:52.848Z,99210.66
2022-09-15T20:29:20.652Z,99213.19
2022-09-15T20:31:48.296Z,99218.38
2022-09-15T20:34:16.003Z,99217.53
2022-09-15T20:36:44.004Z,99222.91
2022-09-15T20:39:13.196Z,99222.75
2022-09-15T20:41:41.601Z,99223.56
2022-09-15T20:44:10.358Z,99233.47
2022-09-15T20:46:37.934Z,99231.78
2022-09-15T20:49:05.994Z,99230.94
2022-09-15T20:51:33.941Z,99233.75
2022-09-15T20:54:01.625Z,99236.44
2022-09-15T20:56:29.240Z,99244.47
2022-09-15T20:58:56.828Z,99240.78
2022-09-15T21:01:25.086Z,99239.13
2022-09-15T21:03:53.458Z,99237.44
2022-09-15T21:06:21.017Z,99241.13
2022-09-15T21:08:48.626Z,99236.78
2022-09-15T21:11:16.221Z,99238.09
2022-09-15T21:13:44.125Z,99238.75
2022-09-15T21:16:11.872Z,99244.44
2022-09-15T21:18:39.561Z,99239.41
2022-09-15T21:21:07.432Z,99242.91
2022-09-15T21:23:35.503Z,99246.44
2022-09-15T21:26:03.180Z,99245.28
2022-09-15T21:28:31.035Z,99247.09
2022-09-15T21:30:59.042Z,99254.13
2022-09-15T21:33:26.643Z,99251.47
2022-09-15T21:35:54.242Z,99253.13
2022-09-15T21:38:22.151Z,99254.84
2022-09-15T21:40:50.062Z,99259.34
2022-09-15T21:43:18.516Z,99261.00
2022-09-15T21:45:46.397Z,99258.50
2022-09-15T21:48:14.915Z,99258.66
2022-09-15T21:50:42.886Z,99265.03
2022-09-15T21:53:10.432Z,99261.50
2022-09-15T21:55:38.350Z,99260.66
2022-09-15T21:58:05.869Z,99259.81
2022-09-15T22:00:33.513Z,99259.16
2022-09-15T22:03:01.464Z,99259.97
2022-09-15T22:05:29.010Z,99254.06
2022-09-15T22:08:00.474Z,99257.91
2022-09-15T22:10:31.776Z,99256.41
2022-09-15T22:12:59.530Z,99261.06
2022-09-15T22:15:27.516Z,99261.41
2022-09-15T22:17:55.111Z,99266.09
2022-09-15T22:20:22.884Z,99256.38
2022-09-15T22:22:50.480Z,99256.53
2022-09-15T22:25:21.791Z,99264.41
2022-09-15T22:27:49.965Z,99261.56
2022-09-15T22:30:17.541Z,99258.72
2022-09-15T22:32:45.465Z,99261.41
2022-09-15T22:35:13.011Z,99260.41
2022-09-15T22:37:40.565Z,99267.44
2022-09-15T22:40:08.636Z,99262.94
2022-09-15T22:42:36.374Z,99268.28
2022-09-15T22:45:03.941Z,99263.75
2022-09-15T22:47:31.540Z,99265.44
2022-09-15T22:49:59.862Z,99265.44
2022-09-15T22:52:27.414Z,99262.94
2022-09-15T22:54:55.012Z,99264.75
2022-09-15T22:57:22.566Z,99265.59
2022-09-15T22:59:50.071Z,99261.25
2022-09-15T23:02:17.794Z,99265.09
2022-09-15T23:04:45.736Z,99259.72
2022-09-15T23:07:14.514Z,99255.69
2022-09-15T23:09:42.066Z,99258.69
2022-09-15T23:12:10.006Z,99261.66
2022-09-15T23:14:37.549Z,99261.00
2022-09-15T23:17:05.471Z,99261.34
2022-09-15T23:19:33.000Z,99273.19
2022-09-15T23:22:00.596Z,99263.78
2022-09-15T23:24:28.391Z,99262.09
2022-09-15T23:26:55.909Z,99263.13
2022-09-15T23:29:26.516Z,99262.44
2022-09-15T23:31:54.113Z,99266.28
2022-09-15T23:34:21.888Z,99265.75
2022-09-15T23:36:49.425Z,99264.22
2022-09-15T23:39:16.992Z,99255.00
2022-09-15T23:41:44.703Z,99268.19
2022-09-15T23:44:12.247Z,99257.94
2022-09-15T23:46:40.139Z,99257.44
2022-09-15T23:49:07.734Z,99256.72
2022-09-15T23:51:35.742Z,99256.72
2022-09-15T23:54:05.210Z,99255.72
2022-09-15T23:56:33.916Z,99263.75
2022-09-15T23:59:01.488Z,99256.44
